Time;durP1;ratioP1;P1;durP2;ratioP2;P2;SDS_P1;SDS_P2;PMS_P1;PMS_P2;Temp;Humidity;BMP_temperature;BMP_pressure;BME280_temperature;BME280_humidity;BME280_pressure;Samples;Min_cycle;Max_cycle;Signal;HPM_P1;HPM_P2
2022/06/20 00:00:16;;;;;;;3.50;2.47;;;;;;;15.71;64.16;98069.16;4958587;28;20086;-63
2022/06/20 00:02:46;;;;;;;5.93;2.83;;;;;;;15.66;64.49;98069.25;4958314;28;20046;-63
2022/06/20 00:05:21;;;;;;;4.07;2.70;;;;;;;15.59;64.36;98072.34;4976018;28;20039;-64
2022/06/20 00:07:48;;;;;;;5.03;2.70;;;;;;;15.53;64.43;98059.38;4975754;28;20484;-64
2022/06/20 00:10:15;;;;;;;6.03;2.53;;;;;;;15.56;64.46;98067.59;4958329;28;20034;-63
2022/06/20 00:12:41;;;;;;;3.97;2.60;;;;;;;15.50;64.91;98068.00;4975251;28;20047;-64
2022/06/20 00:15:10;;;;;;;4.45;3.08;;;;;;;15.45;65.17;98061.69;4975581;28;20043;-63
2022/06/20 00:17:36;;;;;;;5.28;2.70;;;;;;;15.49;65.03;98069.09;4975602;28;20058;-63
2022/06/20 00:20:03;;;;;;;4.28;2.70;;;;;;;15.48;65.12;98078.22;4957996;28;20050;-64
2022/06/20 00:22:29;;;;;;;4.55;3.00;;;;;;;15.44;65.32;98076.16;4975392;28;20092;-64
2022/06/20 00:24:55;;;;;;;4.05;2.60;;;;;;;15.41;64.86;98073.25;4975396;28;20480;-64
2022/06/20 00:27:20;;;;;;;4.53;2.50;;;;;;;15.39;64.53;98056.78;4957888;28;20226;-65
2022/06/20 00:29:47;;;;;;;3.00;2.58;;;;;;;15.36;64.80;98057.38;4975353;28;20050;-65
2022/06/20 00:32:12;;;;;;;6.38;2.67;;;;;;;15.35;64.96;98059.25;4975236;28;20421;-65
2022/06/20 00:34:38;;;;;;;5.82;2.67;;;;;;;15.27;65.72;98051.19;4975084;28;20039;-64
2022/06/20 00:37:05;;;;;;;4.50;2.40;;;;;;;15.30;65.84;98053.25;4975189;28;20049;-64
2022/06/20 00:39:31;;;;;;;3.42;2.60;;;;;;;15.34;65.85;98054.22;4941687;28;20053;-63
2022/06/20 00:41:58;;;;;;;4.25;2.50;;;;;;;15.30;66.75;98055.91;4974783;28;20122;-63
2022/06/20 00:44:49;;;;;;;3.22;2.42;;;;;;;15.29;67.70;98059.66;4960586;28;20054;-64
2022/06/20 00:47:35;;;;;;;5.15;3.13;;;;;;;15.23;67.43;98061.63;4960103;28;20150;-64
2022/06/20 00:50:23;;;;;;;4.63;2.88;;;;;;;15.21;67.57;98063.84;4975434;28;20137;-64
2022/06/20 00:53:27;;;;;;;4.55;2.80;;;;;;;15.12;67.35;98061.09;4946858;28;20101;-64
2022/06/20 00:56:24;;;;;;;4.10;2.75;;;;;;;15.15;67.26;98081.84;4974646;28;20113;-62
2022/06/20 00:59:12;;;;;;;4.28;2.70;;;;;;;15.16;67.42;98091.41;4960011;28;20104;-63
2022/06/20 01:01:56;;;;;;;3.38;2.65;;;;;;;15.11;67.69;98099.53;4946545;28;20134;-63
2022/06/20 01:04:57;;;;;;;5.43;2.97;;;;;;;15.05;67.51;98098.03;4974693;28;20556;-64
2022/06/20 01:07:48;;;;;;;6.55;2.63;;;;;;;15.03;67.15;98099.44;4946520;28;20062;-65
2022/06/20 01:10:44;;;;;;;5.18;2.70;;;;;;;14.99;67.82;98100.03;4959611;28;20428;-64
2022/06/20 01:13:29;;;;;;;3.95;2.60;;;;;;;14.95;67.74;98093.72;4974459;28;20054;-64
2022/06/20 01:16:13;;;;;;;5.97;2.95;;;;;;;14.90;67.77;98079.69;4974130;28;20166;-64
2022/06/20 01:19:00;;;;;;;5.57;2.60;;;;;;;14.88;67.81;98068.50;4974227;28;20150;-63
2022/06/20 01:21:45;;;;;;;3.47;2.70;;;;;;;14.85;68.13;98069.09;4959775;28;20571;-63
2022/06/20 01:24:43;;;;;;;4.38;2.72;;;;;;;14.86;68.41;98082.16;4945797;28;20114;-64
2022/06/20 01:27:37;;;;;;;4.65;2.60;;;;;;;14.81;68.50;98068.13;4959958;28;20053;-64
2022/06/20 01:30:25;;;;;;;3.70;2.85;;;;;;;14.83;68.43;98074.75;4959763;28;20516;-64
2022/06/20 01:33:11;;;;;;;4.72;2.50;;;;;;;14.83;68.54;98082.75;4959553;28;20060;-65
2022/06/20 01:39:00;;;;;;;6.63;2.50;;;;;;;14.75;69.01;98092.22;4973263;28;20057;-63
2022/06/20 01:44:53;;;;;;;4.95;2.50;;;;;;;14.77;69.43;98095.41;4961624;28;20527;-63
2022/06/20 01:47:37;;;;;;;3.00;2.50;;;;;;;14.76;69.18;98090.34;4959361;28;20425;-64
2022/06/20 01:50:22;;;;;;;4.50;2.67;;;;;;;14.71;69.97;98088.56;4959378;28;20193;-65
2022/06/20 01:53:08;;;;;;;2.70;2.40;;;;;;;14.71;70.14;98079.78;4973820;28;20106;-63
2022/06/20 01:55:54;;;;;;;4.60;2.63;;;;;;;14.66;71.21;98075.34;4958898;28;20113;-64
2022/06/20 01:58:45;;;;;;;5.75;3.03;;;;;;;14.64;70.90;98068.72;4945437;28;20061;-66
2022/06/20 02:01:33;;;;;;;5.80;2.45;;;;;;;14.60;71.56;98078.41;4958769;28;20049;-64
2022/06/20 02:04:21;;;;;;;4.75;2.67;;;;;;;14.58;71.46;98069.91;4973693;28;20178;-64
2022/06/20 02:07:09;;;;;;;3.60;2.70;;;;;;;14.58;72.35;98076.00;4958683;28;20097;-64
2022/06/20 02:09:53;;;;;;;3.63;2.75;;;;;;;14.56;71.94;98083.53;4973818;28;20062;-63
2022/06/20 02:12:38;;;;;;;4.22;2.80;;;;;;;14.51;72.33;98073.75;4973506;28;20098;-64
2022/06/20 02:15:22;;;;;;;4.07;2.53;;;;;;;14.53;72.79;98076.13;4945302;28;20193;-65
2022/06/20 02:18:07;;;;;;;3.63;3.00;;;;;;;14.55;72.60;98076.59;4944858;28;20061;-64
2022/06/20 02:20:53;;;;;;;4.60;2.92;;;;;;;14.57;73.46;98089.66;4958645;28;20316;-63
2022/06/20 02:23:42;;;;;;;5.10;2.95;;;;;;;14.52;73.41;98069.97;4973162;28;20888;-63
2022/06/20 02:26:27;;;;;;;6.63;3.13;;;;;;;14.50;73.57;98082.00;4944627;28;20097;-63
2022/06/20 02:29:22;;;;;;;6.68;3.00;;;;;;;14.50;74.17;98096.13;4958636;28;20054;-63
2022/06/20 02:32:28;;;;;;;8.02;3.08;;;;;;;14.50;74.04;98082.00;4945761;28;20245;-62
2022/06/20 02:35:17;;;;;;;7.10;3.17;;;;;;;14.45;74.34;98063.44;4958289;28;20094;-63
2022/06/20 02:38:02;;;;;;;8.43;3.10;;;;;;;14.45;74.80;98060.78;4958252;28;20197;-65
2022/06/20 02:40:48;;;;;;;5.45;3.20;;;;;;;14.46;74.75;98043.69;4972927;28;20145;-64
2022/06/20 02:43:47;;;;;;;4.03;3.03;;;;;;;14.45;74.46;98026.13;4972964;28;20587;-64
2022/06/20 02:46:31;;;;;;;4.53;3.08;;;;;;;14.46;74.44;98012.47;4972676;28;20049;-66
2022/06/20 02:49:17;;;;;;;4.57;2.95;;;;;;;14.50;74.26;98028.66;4958279;28;20046;-63
2022/06/20 02:52:02;;;;;;;6.35;3.70;;;;;;;14.55;73.92;98036.59;4958105;28;20054;-63
2022/06/20 02:54:48;;;;;;;13.35;3.83;;;;;;;14.59;74.41;98053.59;4958256;28;20207;-64
2022/06/20 02:57:37;;;;;;;7.60;3.45;;;;;;;14.56;73.79;98062.19;4957750;28;20697;-63
2022/06/20 03:00:26;;;;;;;4.55;3.15;;;;;;;14.48;74.62;98068.97;4958186;28;20423;-65
2022/06/20 03:03:20;;;;;;;5.25;3.10;;;;;;;14.47;74.32;98077.25;4958309;28;20053;-64
2022/06/20 03:06:05;;;;;;;4.70;2.90;;;;;;;14.45;75.01;98061.56;4958147;28;20112;-64
2022/06/20 03:08:51;;;;;;;5.72;3.05;;;;;;;14.51;74.41;98023.09;4958054;28;20090;-65
2022/06/20 03:11:37;;;;;;;4.75;3.05;;;;;;;14.55;74.27;97972.63;4958159;28;20081;-64
2022/06/20 03:14:36;;;;;;;6.18;2.90;;;;;;;14.51;73.74;97959.09;4957913;28;20061;-65
2022/06/20 03:17:22;;;;;;;4.72;3.03;;;;;;;14.64;73.67;97983.38;4972282;28;20159;-65
2022/06/20 03:20:11;;;;;;;7.35;3.38;;;;;;;14.63;73.30;98075.94;4972779;28;20054;-64
2022/06/20 03:23:07;;;;;;;5.63;3.20;;;;;;;14.62;73.77;98090.34;4958151;28;20421;-64
2022/06/20 03:25:53;;;;;;;5.78;3.53;;;;;;;14.59;73.53;98050.94;4957924;28;20109;-64
2022/06/20 03:28:38;;;;;;;7.07;3.40;;;;;;;14.58;74.32;98013.91;4972473;28;20061;-64
2022/06/20 03:31:22;;;;;;;6.53;3.08;;;;;;;14.57;73.44;98004.31;4957650;28;20543;-64
2022/06/20 03:34:07;;;;;;;4.80;3.03;;;;;;;14.52;73.49;98000.66;4957996;28;20121;-64
2022/06/20 03:36:51;;;;;;;3.53;2.80;;;;;;;14.52;74.05;98021.19;4972311;28;20147;-64
2022/06/20 03:39:36;;;;;;;7.13;3.50;;;;;;;14.55;73.89;98041.94;4972710;28;20551;-64
2022/06/20 03:42:21;;;;;;;5.00;3.17;;;;;;;14.64;73.95;98042.81;4957691;28;20085;-64
2022/06/20 03:45:07;;;;;;;5.93;3.38;;;;;;;14.76;73.23;98051.16;4958013;28;20552;-64
2022/06/20 03:48:03;;;;;;;7.35;2.85;;;;;;;14.87;73.25;98065.06;4957830;28;20579;-63
2022/06/20 03:51:12;;;;;;;4.53;2.90;;;;;;;14.89;72.98;98078.91;4972323;28;20416;-65
2022/06/20 03:54:05;;;;;;;4.75;3.30;;;;;;;14.82;72.75;98093.72;4971974;28;20117;-65
2022/06/20 03:57:09;;;;;;;6.03;3.17;;;;;;;14.76;72.87;98123.16;4957350;28;20073;-65
2022/06/20 04:00:08;;;;;;;7.88;2.92;;;;;;;14.73;73.02;98070.38;4968631;28;20086;-64
2022/06/20 04:03:04;;;;;;;4.65;2.58;;;;;;;14.77;72.93;97945.22;4975714;28;20065;-64
2022/06/20 04:05:53;;;;;;;3.20;2.90;;;;;;;14.80;71.88;97952.63;4960944;28;20121;-64
2022/06/20 04:11:57;;;;;;;10.52;3.25;;;;;;;15.24;70.99;98027.75;4960639;28;20053;-63
2022/06/20 04:14:46;;;;;;;5.45;3.03;;;;;;;15.28;70.50;98047.41;4947230;28;20053;-63
2022/06/20 04:20:48;;;;;;;5.50;3.15;;;;;;;15.40;70.51;98042.31;4963411;28;20692;-64
2022/06/20 04:23:39;;;;;;;6.50;3.72;;;;;;;15.38;70.15;98031.16;4975282;28;20579;-64
2022/06/20 04:26:25;;;;;;;;;;;;;;;15.39;70.56;98032.75;4975579;28;20057;-64
2022/06/20 04:29:23;;;;;;;4.75;3.10;;;;;;;15.47;69.95;98055.25;4960773;28;19992;-64
2022/06/20 04:32:16;;;;;;;6.22;3.40;;;;;;;15.54;69.87;98075.13;4975325;28;20201;-64
2022/06/20 04:35:13;;;;;;;3.38;2.85;;;;;;;15.52;69.51;98071.94;4947114;28;20085;-65
2022/06/20 04:38:06;;;;;;;5.25;2.90;;;;;;;15.53;70.01;98086.09;4960098;28;20539;-64
2022/06/20 04:40:59;;;;;;;5.80;2.88;;;;;;;15.66;69.51;98091.41;4946972;28;20420;-64
2022/06/20 04:43:57;;;;;;;7.13;3.10;;;;;;;15.78;68.89;98040.13;4959828;28;20065;-64
2022/06/20 04:46:53;;;;;;;4.80;2.80;;;;;;;15.84;68.86;98046.94;4974936;28;20066;-64
2022/06/20 04:49:38;;;;;;;5.50;2.95;;;;;;;15.86;68.64;98049.31;4974665;28;20102;-64
2022/06/20 04:52:26;;;;;;;5.63;3.15;;;;;;;15.97;68.57;98066.69;4974927;28;20551;-64
2022/06/20 04:55:16;;;;;;;8.02;3.20;;;;;;;15.92;68.29;98068.69;4946522;28;20054;-64
2022/06/20 04:58:03;;;;;;;5.15;3.22;;;;;;;15.89;68.24;98044.13;4960224;28;20081;-64
2022/06/20 05:00:49;;;;;;;7.07;2.90;;;;;;;15.87;68.77;98064.25;4974517;28;20069;-64
2022/06/20 05:03:40;;;;;;;7.88;3.30;;;;;;;15.80;68.60;98067.34;4959978;28;20105;-63
2022/06/20 05:06:26;;;;;;;7.18;3.13;;;;;;;15.67;68.04;98047.59;4959738;28;20109;-62
2022/06/20 05:09:27;;;;;;;6.32;2.72;;;;;;;15.81;68.37;98074.25;4960015;28;20050;-64
2022/06/20 05:12:19;;;;;;;4.40;3.15;;;;;;;16.01;68.40;98090.91;4958601;28;20120;-64
2022/06/20 05:15:18;;;;;;;9.25;3.55;;;;;;;16.12;67.22;98084.22;4959892;28;20424;-64
2022/06/20 05:18:12;;;;;;;9.13;3.42;;;;;;;16.20;66.10;98072.78;4959418;28;20109;-65
2022/06/20 05:21:02;;;;;;;4.78;2.95;;;;;;;16.21;66.22;98077.03;4974050;28;20089;-64
2022/06/20 05:23:50;;;;;;;4.68;3.13;;;;;;;16.30;66.66;98072.53;4946159;28;20326;-64
2022/06/20 05:26:38;;;;;;;5.25;3.55;;;;;;;16.35;66.49;98083.09;4945708;28;20548;-65
2022/06/20 05:29:27;;;;;;;3.40;2.67;;;;;;;16.23;66.23;98088.19;4959560;28;20420;-64
2022/06/20 05:32:22;;;;;;;5.57;3.10;;;;;;;16.07;66.56;98087.00;4959341;28;20601;-65
2022/06/20 05:35:15;;;;;;;6.22;3.20;;;;;;;15.84;67.33;98108.38;4959483;28;20105;-64
2022/06/20 05:37:57;;;;;;;7.68;3.28;;;;;;;15.81;67.75;98125.03;4973818;28;20046;-64
2022/06/20 05:40:40;;;;;;;5.00;2.85;;;;;;;15.81;67.55;98135.72;4940679;28;20062;-63
2022/06/20 05:43:15;;;;;;;6.63;2.67;;;;;;;15.81;67.15;98145.63;4973566;28;20156;-64
2022/06/20 05:45:41;;;;;;;5.53;3.00;;;;;;;15.78;67.86;98159.56;4941107;28;20039;-64
2022/06/20 05:48:10;;;;;;;7.53;3.63;;;;;;;15.79;67.87;98172.63;4973820;28;20057;-64
2022/06/20 05:50:43;;;;;;;8.55;3.20;;;;;;;15.93;67.37;98161.13;4956483;28;20497;-65
2022/06/20 05:53:16;;;;;;;5.40;3.15;;;;;;;16.07;66.52;98167.22;4956104;28;20097;-64
2022/06/20 05:55:47;;;;;;;5.90;3.05;;;;;;;16.32;65.91;98163.94;4956273;28;20401;-64
2022/06/20 05:58:27;;;;;;;5.00;3.28;;;;;;;16.42;64.99;98152.19;4940123;28;20047;-64
2022/06/20 06:00:54;;;;;;;6.22;2.90;;;;;;;16.40;65.60;98149.03;4956176;28;20070;-64
2022/06/20 06:04:07;;;;;;;7.55;3.13;;;;;;;16.47;65.50;98153.94;4939898;28;20054;-63
2022/06/20 06:06:42;;;;;;;5.43;2.97;;;;;;;16.58;64.67;98158.72;4973520;28;20194;-64
2022/06/20 06:09:21;;;;;;;4.10;3.10;;;;;;;16.68;64.36;98152.34;4973434;28;20430;-65
2022/06/20 06:11:54;;;;;;;6.20;3.30;;;;;;;16.98;63.10;98150.75;4955900;28;20047;-64
2022/06/20 06:14:28;;;;;;;6.57;3.17;;;;;;;16.90;63.07;98148.03;4973282;28;20042;-64
2022/06/20 06:17:19;;;;;;;10.48;3.55;;;;;;;17.03;62.70;98144.50;4955379;28;20055;-64
2022/06/20 06:19:53;;;;;;;5.32;3.28;;;;;;;17.32;61.50;98133.22;4973379;28;20046;-64
2022/06/20 06:22:29;;;;;;;7.55;3.38;;;;;;;17.65;61.25;98135.50;4973165;28;20054;-65
2022/06/20 06:25:09;;;;;;;8.10;3.08;;;;;;;17.81;60.10;98133.94;4972488;28;20523;-64
2022/06/20 06:27:36;;;;;;;8.70;3.03;;;;;;;18.17;58.96;98130.91;4955438;28;20061;-64
2022/06/20 06:30:17;;;;;;;6.65;3.45;;;;;;;18.11;57.97;98126.03;4955804;28;20043;-64
2022/06/20 06:32:49;;;;;;;7.70;3.00;;;;;;;18.06;58.32;98131.56;4955425;28;20160;-64
2022/06/20 06:35:22;;;;;;;9.82;2.83;;;;;;;18.09;58.09;98131.72;4971520;28;20046;-65
2022/06/20 06:38:05;;;;;;;5.93;3.00;;;;;;;17.99;58.37;98134.72;4972333;28;20126;-64
2022/06/20 06:40:35;;;;;;;5.07;2.80;;;;;;;18.01;57.51;98129.06;4972161;28;20046;-65
2022/06/20 06:43:11;;;;;;;;;;;;;;;18.03;57.60;98137.53;4955507;28;20046;-63
2022/06/20 06:45:37;;;;;;;10.00;2.78;;;;;;;17.73;58.51;98137.34;4972853;28;19921;-63
2022/06/20 06:48:10;;;;;;;6.32;2.90;;;;;;;17.77;58.04;98132.19;4955377;28;20560;-66
2022/06/20 06:50:41;;;;;;;5.82;3.22;;;;;;;17.67;58.01;98130.59;4955086;28;20066;-65
2022/06/20 06:53:17;;;;;;;5.95;3.08;;;;;;;17.56;58.62;98130.13;4972704;28;20058;-66
2022/06/20 06:55:47;;;;;;;6.40;2.70;;;;;;;17.54;58.03;98126.16;4954945;28;20042;-64
2022/06/20 06:58:22;;;;;;;5.68;2.80;;;;;;;17.36;58.31;98130.72;4955230;28;20046;-63
2022/06/20 07:00:55;;;;;;;5.10;3.03;;;;;;;17.44;58.30;98124.56;4972491;28;20089;-64
2022/06/20 07:03:24;;;;;;;5.90;3.40;;;;;;;17.52;58.08;98131.03;4972398;28;20042;-64
2022/06/20 07:06:02;;;;;;;3.00;2.70;;;;;;;17.50;57.98;98128.69;4972463;28;20047;-65
2022/06/20 07:08:42;;;;;;;4.80;2.78;;;;;;;17.44;57.89;98141.44;4954954;28;20042;-64
2022/06/20 07:11:21;;;;;;;8.23;2.65;;;;;;;17.43;57.66;98131.81;4955224;28;20070;-64
2022/06/20 07:13:52;;;;;;;8.63;3.75;;;;;;;17.62;57.98;98136.91;4972473;28;20039;-65
2022/06/20 07:16:57;;;;;;;6.85;2.92;;;;;;;17.85;56.68;98145.63;4972247;28;20062;-64
2022/06/20 07:19:24;;;;;;;7.25;2.80;;;;;;;17.94;55.77;98137.56;4972519;28;20042;-64
2022/06/20 07:21:50;;;;;;;5.80;3.10;;;;;;;18.06;55.71;98144.97;4954966;28;20097;-65
2022/06/20 07:24:19;;;;;;;3.50;2.50;;;;;;;18.27;55.07;98137.06;4972030;28;20564;-64
2022/06/20 07:26:52;;;;;;;8.15;2.95;;;;;;;18.53;54.73;98147.72;4954779;28;20485;-65
2022/06/20 07:29:27;;;;;;;8.43;2.78;;;;;;;18.46;53.27;98160.84;4923139;28;20050;-65
2022/06/20 07:32:03;;;;;;;5.00;2.60;;;;;;;18.41;52.97;98166.38;4972075;28;20453;-64
2022/06/20 07:34:39;;;;;;;5.32;2.53;;;;;;;18.52;52.92;98164.94;4954699;28;20064;-64
2022/06/20 07:37:22;;;;;;;8.48;2.67;;;;;;;18.56;53.67;98169.38;4957998;28;20043;-65
2022/06/20 07:40:11;;;;;;;7.30;2.40;;;;;;;18.55;53.68;98164.31;4976013;28;20043;-65
2022/06/20 07:42:46;;;;;;;4.13;2.75;;;;;;;18.13;53.50;98154.09;4962171;28;20540;-64
2022/06/20 07:45:21;;;;;;;7.07;2.47;;;;;;;18.16;53.64;98147.31;4942812;28;20243;-65
2022/06/20 07:47:54;;;;;;;3.08;2.45;;;;;;;18.30;53.50;98147.16;4974585;28;20051;-66
2022/06/20 07:50:31;;;;;;;10.63;2.85;;;;;;;18.26;52.30;98157.72;4976166;28;20038;-65
2022/06/20 07:53:13;;;;;;;4.60;1.83;;;;;;;18.16;51.30;98152.69;4958388;28;20051;-64
2022/06/20 07:55:43;;;;;;;6.03;2.20;;;;;;;18.27;51.80;98161.22;4975945;28;20038;-64
2022/06/20 07:58:14;;;;;;;6.90;3.03;;;;;;;18.31;51.85;98165.59;4942085;28;20575;-65
2022/06/20 08:00:45;;;;;;;3.50;2.20;;;;;;;18.42;51.07;98165.28;4942261;28;20047;-66
2022/06/20 08:03:16;;;;;;;4.10;2.33;;;;;;;18.40;50.88;98165.59;4958469;28;20043;-65
2022/06/20 08:05:45;;;;;;;3.65;2.10;;;;;;;18.46;52.16;98168.91;4958377;28;20047;-65
2022/06/20 08:08:22;;;;;;;6.00;2.53;;;;;;;18.52;52.15;98160.34;4975513;28;20069;-64
2022/06/20 08:10:58;;;;;;;4.55;1.95;;;;;;;18.64;51.09;98148.19;4958291;28;20035;-65
2022/06/20 08:13:56;;;;;;;4.93;2.40;;;;;;;18.43;51.88;98164.97;4975287;28;20049;-64
2022/06/20 08:16:27;;;;;;;4.25;2.00;;;;;;;18.46;50.92;98156.28;4974971;28;20062;-65
2022/06/20 08:18:53;;;;;;;5.88;2.42;;;;;;;18.43;50.78;98172.22;4958128;28;20508;-64
2022/06/20 08:21:41;;;;;;;6.78;2.10;;;;;;;18.44;47.66;98171.09;4975352;28;20078;-64
2022/06/20 08:24:17;;;;;;;9.40;2.80;;;;;;;18.62;47.86;98178.03;4957759;28;20042;-65
2022/06/20 08:26:50;;;;;;;5.28;1.98;;;;;;;18.76;48.27;98170.59;4957695;28;20054;-64
2022/06/20 08:29:22;;;;;;;7.63;2.35;;;;;;;19.14;47.27;98161.75;4941756;28;20419;-65
2022/06/20 08:31:53;;;;;;;5.20;2.30;;;;;;;19.51;45.00;98160.13;4957608;28;20054;-64
2022/06/20 08:34:22;;;;;;;5.82;2.20;;;;;;;19.92;44.40;98163.22;4941877;28;20162;-65
2022/06/20 08:37:14;;;;;;;7.55;2.63;;;;;;;20.40;43.66;98164.50;4973670;28;20051;-65
2022/06/20 08:40:20;;;;;;;9.32;2.40;;;;;;;20.51;43.41;98167.59;4971191;28;20062;-64
2022/06/20 08:43:11;;;;;;;4.25;2.10;;;;;;;20.72;41.84;98154.09;4896100;28;20066;-64
2022/06/20 08:45:42;;;;;;;4.60;2.00;;;;;;;20.71;39.65;98172.16;4974633;28;20050;-66
2022/06/20 08:48:39;;;;;;;4.35;1.92;;;;;;;20.56;40.92;98162.00;4957253;28;20054;-65
2022/06/20 08:51:08;;;;;;;2.88;1.58;;;;;;;20.68;41.04;98172.00;4974483;28;20054;-64
2022/06/20 08:53:52;;;;;;;4.70;1.85;;;;;;;20.53;39.68;98163.47;4974381;28;20062;-65
2022/06/20 08:56:22;;;;;;;3.80;2.20;;;;;;;20.63;38.90;98173.03;4957190;28;20050;-65
2022/06/20 08:58:58;;;;;;;3.60;1.92;;;;;;;20.78;39.09;98153.53;4956957;28;20453;-65
2022/06/20 09:01:41;;;;;;;9.25;2.30;;;;;;;21.07;38.69;98157.16;4974243;28;20497;-67
2022/06/20 09:04:33;;;;;;;6.95;2.58;;;;;;;21.33;38.99;98154.91;4956975;28;20496;-66
2022/06/20 09:07:35;;;;;;;6.05;2.13;;;;;;;21.53;38.77;98150.53;4973928;28;20058;-65
2022/06/20 09:10:13;;;;;;;4.15;2.33;;;;;;;21.73;38.35;98139.91;4974295;28;20043;-65
2022/06/20 09:12:53;;;;;;;5.53;2.03;;;;;;;21.98;38.11;98154.13;4974564;28;20264;-65
2022/06/20 09:15:34;;;;;;;3.45;1.95;;;;;;;21.91;37.61;98160.09;4973964;28;20531;-64
2022/06/20 09:18:26;;;;;;;3.28;2.03;;;;;;;21.76;38.61;98160.81;4974275;28;20055;-64
2022/06/20 09:20:58;;;;;;;4.55;1.60;;;;;;;21.59;35.93;98169.97;4970342;28;20109;-66
2022/06/20 09:23:57;;;;;;;3.70;1.60;;;;;;;21.59;36.11;98171.84;4956517;28;20043;-65
2022/06/20 09:26:33;;;;;;;6.18;1.80;;;;;;;21.47;37.11;98176.16;4956744;28;20043;-65
2022/06/20 09:29:11;;;;;;;4.72;1.65;;;;;;;21.58;37.27;98173.75;4956868;28;20421;-65
2022/06/20 09:32:08;;;;;;;2.50;1.50;;;;;;;21.56;38.32;98170.63;4956886;28;20093;-65
2022/06/20 09:34:52;;;;;;;4.35;2.08;;;;;;;21.80;37.66;98172.50;4973982;28;20054;-64
2022/06/20 09:37:36;;;;;;;3.25;2.15;;;;;;;21.82;37.36;98159.44;4973814;28;20038;-65
2022/06/20 09:40:14;;;;;;;5.63;2.33;;;;;;;21.91;37.71;98157.41;4973644;28;20054;-65
2022/06/20 09:42:59;;;;;;;5.90;2.10;;;;;;;21.98;37.27;98149.50;4956409;28;20043;-65
2022/06/20 09:45:46;;;;;;;3.67;1.75;;;;;;;22.05;36.16;98161.63;4973983;28;20125;-64
2022/06/20 09:48:38;;;;;;;2.90;2.00;;;;;;;21.81;34.98;98171.38;4973770;28;20047;-65
2022/06/20 09:51:22;;;;;;;4.07;1.92;;;;;;;21.54;36.33;98176.34;4956634;28;20046;-66
2022/06/20 09:54:09;;;;;;;4.50;2.00;;;;;;;21.50;36.80;98164.69;4941988;28;20074;-65
2022/06/20 09:56:43;;;;;;;2.60;1.80;;;;;;;21.40;37.17;98177.84;4939942;28;20101;-65
2022/06/20 09:59:30;;;;;;;5.18;2.00;;;;;;;21.44;37.56;98168.75;4973115;28;20042;-65
2022/06/20 10:01:59;;;;;;;3.40;2.00;;;;;;;21.60;38.37;98168.81;4973544;28;20062;-65
2022/06/20 10:04:37;;;;;;;3.33;2.00;;;;;;;21.75;37.78;98176.19;4955933;28;20049;-65
2022/06/20 10:07:21;;;;;;;5.03;1.92;;;;;;;21.80;37.95;98159.00;4955896;28;20050;-65
2022/06/20 10:10:09;;;;;;;5.05;2.05;;;;;;;21.91;37.93;98160.09;4956163;28;20529;-65
2022/06/20 10:12:51;;;;;;;5.68;3.13;;;;;;;21.82;37.29;98167.53;4973216;28;20046;-65
2022/06/20 10:15:30;;;;;;;6.25;2.15;;;;;;;21.98;37.63;98168.41;4973332;28;20173;-64
2022/06/20 10:18:08;;;;;;;6.90;1.80;;;;;;;22.01;37.38;98172.31;4955672;28;20579;-65
2022/06/20 10:21:04;;;;;;;2.75;1.75;;;;;;;21.97;36.65;98174.13;4973437;28;20086;-65
2022/06/20 10:23:44;;;;;;;5.18;2.08;;;;;;;21.72;37.54;98178.81;4955646;28;20101;-64
2022/06/20 10:26:28;;;;;;;3.10;1.90;;;;;;;21.60;37.95;98176.13;4972616;28;20038;-65
2022/06/20 10:28:54;;;;;;;2.97;2.08;;;;;;;21.66;38.26;98175.56;4972806;28;20408;-63
2022/06/20 10:31:32;;;;;;;4.15;1.80;;;;;;;21.75;37.58;98181.59;4972845;28;20047;-66
2022/06/20 10:34:13;;;;;;;5.32;2.60;;;;;;;21.68;38.63;98192.19;4972814;28;20042;-64
2022/06/20 10:36:47;;;;;;;8.60;2.20;;;;;;;21.88;38.60;98176.94;4972682;28;20054;-65
2022/06/20 10:39:23;;;;;;;6.82;2.10;;;;;;;22.06;38.27;98164.00;4939400;28;20383;-64
2022/06/20 10:42:10;;;;;;;6.15;1.90;;;;;;;22.28;37.87;98181.59;4972896;28;20050;-65
2022/06/20 10:44:59;;;;;;;6.38;2.22;;;;;;;22.38;37.35;98174.91;4972448;28;20452;-65
2022/06/20 10:47:44;;;;;;;11.43;2.83;;;;;;;22.30;37.96;98165.84;4939269;28;20054;-64
2022/06/20 10:50:09;;;;;;;5.30;2.00;;;;;;;22.42;37.69;98171.16;4939209;28;20042;-65
2022/06/20 10:52:59;;;;;;;5.47;2.10;;;;;;;22.28;37.90;98170.78;4954980;28;20178;-64
2022/06/20 10:55:28;;;;;;;;;;;;;;;22.24;37.65;98159.13;4973171;28;20059;-65
2022/06/20 10:58:00;;;;;;;4.20;1.80;;;;;;;22.17;38.38;98164.31;4972202;28;20380;-65
2022/06/20 11:00:27;;;;;;;4.43;1.90;;;;;;;22.25;38.50;98159.91;4923176;28;20108;-66
2022/06/20 11:03:12;;;;;;;4.72;1.80;;;;;;;22.34;37.88;98153.22;4972155;28;20154;-67
2022/06/20 11:05:44;;;;;;;5.40;1.80;;;;;;;22.34;38.06;98153.22;4972364;28;20042;-65
2022/06/20 11:08:45;;;;;;;5.15;1.90;;;;;;;22.42;37.75;98162.28;4939291;28;20086;-65
2022/06/20 11:11:24;;;;;;;4.35;1.77;;;;;;;22.32;37.98;98155.47;4932309;28;20055;-66
2022/06/20 11:14:13;;;;;;;9.33;2.60;;;;;;;22.32;38.76;98154.69;4976512;28;20047;-65
2022/06/20 11:17:17;;;;;;;4.20;1.77;;;;;;;22.37;38.70;98151.75;4958809;28;20310;-67
2022/06/20 11:20:04;;;;;;;4.28;1.90;;;;;;;22.48;38.10;98146.63;4897511;29;20052;-64
2022/06/20 11:22:43;;;;;;;4.32;1.90;;;;;;;22.50;37.95;98149.75;4897563;29;20558;-64
2022/06/20 11:25:17;;;;;;;7.38;2.10;;;;;;;22.47;38.61;98145.81;4935868;28;20063;-65
2022/06/20 11:27:46;;;;;;;2.53;1.73;;;;;;;22.26;37.74;98158.75;4959344;28;20054;-65
2022/06/20 11:30:23;;;;;;;5.28;2.20;;;;;;;22.22;38.56;98151.34;4976574;28;20559;-65
2022/06/20 11:33:15;;;;;;;7.03;2.08;;;;;;;22.20;39.18;98142.03;4927288;28;20049;-64
2022/06/20 11:35:47;;;;;;;5.03;1.55;;;;;;;22.25;38.72;98149.88;4958988;28;20079;-64
2022/06/20 11:38:28;;;;;;;5.75;1.70;;;;;;;22.26;38.61;98145.25;4975988;28;20485;-63
2022/06/20 11:40:54;;;;;;;3.92;2.38;;;;;;;22.29;39.44;98148.06;4976232;28;20501;-65
2022/06/20 11:43:51;;;;;;;7.70;2.25;;;;;;;22.22;39.28;98147.88;4975852;28;20042;-64
2022/06/20 11:46:27;;;;;;;5.43;1.75;;;;;;;22.26;38.79;98148.75;4975223;28;20058;-65
2022/06/20 11:49:02;;;;;;;5.00;2.00;;;;;;;22.23;38.51;98152.91;4976004;28;20054;-65
2022/06/20 11:51:45;;;;;;;7.60;2.17;;;;;;;22.11;38.58;98149.47;4958078;28;20486;-65
2022/06/20 11:54:26;;;;;;;6.07;2.30;;;;;;;21.91;39.07;98146.63;4942735;28;20042;-65
2022/06/20 11:56:59;;;;;;;5.13;2.03;;;;;;;21.81;38.99;98149.78;4975557;28;20161;-65
2022/06/20 11:59:43;;;;;;;6.93;2.53;;;;;;;21.91;38.74;98146.63;4958410;28;20122;-65
2022/06/20 12:02:27;;;;;;;3.30;2.10;;;;;;;21.93;38.57;98138.94;4958209;28;20049;-65
2022/06/20 12:05:30;;;;;;;4.45;2.20;;;;;;;21.93;38.28;98133.56;4975724;28;20042;-65
2022/06/20 12:08:31;;;;;;;2.00;1.70;;;;;;;21.86;38.45;98141.47;4975379;28;20051;-64
2022/06/20 12:11:01;;;;;;;4.72;1.90;;;;;;;21.81;38.61;98140.91;4975628;28;20061;-65
2022/06/20 12:13:45;;;;;;;6.22;1.95;;;;;;;21.72;40.42;98127.56;4957896;28;20104;-65
2022/06/20 12:16:29;;;;;;;5.22;2.22;;;;;;;21.72;39.92;98130.25;4957728;28;20074;-64
2022/06/20 12:24:34;;;;;;;6.07;1.88;;;;;;;21.27;39.75;98150.09;4960566;28;20043;-64
2022/06/20 12:26:59;;;;;;;4.53;1.95;;;;;;;21.30;40.00;98154.78;4957717;28;20069;-66
2022/06/20 12:29:28;;;;;;;4.32;1.80;;;;;;;21.25;40.28;98155.00;4975147;28;20543;-65
2022/06/20 12:31:56;;;;;;;4.20;2.00;;;;;;;21.15;40.81;98156.25;4958196;28;20058;-64
2022/06/20 12:34:55;;;;;;;5.07;1.85;;;;;;;21.13;40.78;98165.81;4957703;28;20043;-64
2022/06/20 12:37:39;;;;;;;3.93;1.80;;;;;;;21.35;40.04;98157.25;4974786;28;20548;-65
2022/06/20 12:40:10;;;;;;;4.05;1.70;;;;;;;21.67;39.64;98173.63;4957536;28;20042;-65
2022/06/20 12:43:05;;;;;;;5.18;1.92;;;;;;;21.91;39.28;98173.59;4957200;28;20097;-64
2022/06/20 12:45:36;;;;;;;8.20;2.22;;;;;;;22.16;38.77;98168.13;4905364;28;20048;-65
2022/06/20 12:48:24;;;;;;;3.55;1.98;;;;;;;22.14;38.71;98176.53;4974985;28;20055;-64
2022/06/20 12:51:11;;;;;;;7.70;2.22;;;;;;;21.91;38.88;98179.00;4974754;28;20049;-65
2022/06/20 12:53:55;;;;;;;7.78;3.20;;;;;;;21.84;39.00;98165.28;4957287;28;20043;-64
2022/06/20 12:56:43;;;;;;;6.28;2.92;;;;;;;21.86;39.14;98162.25;4974620;28;20074;-66
2022/06/20 12:59:38;;;;;;;3.40;1.63;;;;;;;21.88;39.37;98149.97;4974456;28;20050;-64
2022/06/20 13:02:23;;;;;;;8.85;3.50;;;;;;;21.95;39.49;98158.28;4957152;28;20567;-64